createdAt,value
2017-10-11T00:00:23.384Z,13.6
2017-10-11T00:01:25.472Z,13.6
2017-10-11T00:02:27.542Z,13.6
2017-10-11T00:03:29.636Z,13.6
2017-10-11T00:04:31.751Z,13.6
2017-10-11T00:05:34.124Z,13.7
2017-10-11T00:06:36.228Z,13.7
2017-10-11T00:07:38.373Z,13.8
2017-10-11T00:08:40.474Z,13.7
2017-10-11T00:09:42.523Z,13.7
2017-10-11T00:10:44.592Z,13.7
2017-10-11T00:11:46.704Z,13.7
2017-10-11T00:12:48.781Z,13.7
2017-10-11T00:13:50.873Z,13.8
2017-10-11T00:14:52.949Z,13.7
2017-10-11T00:15:55.067Z,13.6
2017-10-11T00:16:57.158Z,13.6
2017-10-11T00:17:59.301Z,13.6
2017-10-11T00:19:01.447Z,13.6
2017-10-11T00:20:03.590Z,13.6
2017-10-11T00:21:05.863Z,13.5
2017-10-11T00:22:07.946Z,13.6
2017-10-11T00:23:10.009Z,13.6
2017-10-11T00:24:14.105Z,13.6
2017-10-11T00:25:16.678Z,13.6
2017-10-11T00:26:19.068Z,13.6
2017-10-11T00:27:21.142Z,13.7
2017-10-11T00:28:23.224Z,13.6
2017-10-11T00:29:25.246Z,13.6
2017-10-11T00:30:27.305Z,13.6
2017-10-11T00:31:29.384Z,13.6
2017-10-11T00:32:31.426Z,13.7
2017-10-11T00:33:33.540Z,13.6
2017-10-11T00:34:35.664Z,13.6
2017-10-11T00:35:37.780Z,13.7
2017-10-11T00:36:39.900Z,13.7
2017-10-11T00:37:41.971Z,13.6
2017-10-11T00:38:44.058Z,13.6
2017-10-11T00:39:46.139Z,13.6
2017-10-11T00:40:48.249Z,13.6
2017-10-11T00:41:50.377Z,13.6
2017-10-11T00:42:52.458Z,13.7
2017-10-11T00:43:54.502Z,13.6
2017-10-11T00:44:56.576Z,13.6
2017-10-11T00:45:58.657Z,13.6
2017-10-11T00:47:00.731Z,13.7
2017-10-11T00:48:02.834Z,13.6
2017-10-11T00:49:04.884Z,13.6
2017-10-11T00:50:06.914Z,13.6
2017-10-11T00:51:09.000Z,13.6
2017-10-11T00:52:11.062Z,13.6
2017-10-11T00:53:14.826Z,13.7
2017-10-11T00:54:17.098Z,13.6
2017-10-11T00:55:19.221Z,13.7
2017-10-11T00:56:21.576Z,13.7
2017-10-11T00:57:23.743Z,13.7
2017-10-11T00:58:25.820Z,13.6
2017-10-11T00:59:27.859Z,13.6
2017-10-11T01:00:29.918Z,13.7
2017-10-11T01:01:32.055Z,13.6
2017-10-11T01:02:34.169Z,13.6
2017-10-11T01:03:36.273Z,13.6
2017-10-11T01:04:38.339Z,13.6
2017-10-11T01:05:40.395Z,13.6
2017-10-11T01:06:42.475Z,13.7
2017-10-11T01:07:44.576Z,13.6
2017-10-11T01:08:46.657Z,13.5
2017-10-11T01:09:48.757Z,13.5
2017-10-11T01:10:50.841Z,13.5
2017-10-11T01:11:52.920Z,13.5
2017-10-11T01:12:55.051Z,13.5
2017-10-11T01:13:57.148Z,13.6
2017-10-11T01:14:59.266Z,13.5
2017-10-11T01:16:01.346Z,13.4
2017-10-11T01:17:03.417Z,13.4
2017-10-11T01:18:05.488Z,13.4
2017-10-11T01:19:07.557Z,13.4
2017-10-11T01:20:09.809Z,13.4
2017-10-11T01:21:11.890Z,13.4
2017-10-11T01:22:16.885Z,13.4
2017-10-11T01:23:19.011Z,13.4
2017-10-11T01:24:21.122Z,13.4
2017-10-11T01:25:23.235Z,13.4
2017-10-11T01:26:25.316Z,13.4
2017-10-11T01:27:27.425Z,13.4
2017-10-11T01:28:30.027Z,13.3
2017-10-11T01:29:32.174Z,13.4
2017-10-11T01:30:34.237Z,13.4
2017-10-11T01:31:36.292Z,13.4
2017-10-11T01:32:38.354Z,13.4
2017-10-11T01:33:40.441Z,13.4
2017-10-11T01:34:42.519Z,13.5
2017-10-11T01:35:44.610Z,13.4
2017-10-11T01:36:46.719Z,13.5
2017-10-11T01:37:48.822Z,13.4
2017-10-11T01:38:51.183Z,13.4
2017-10-11T01:39:53.304Z,13.4
2017-10-11T01:40:55.432Z,13.4
2017-10-11T01:41:57.556Z,13.5
2017-10-11T01:42:59.639Z,13.5
2017-10-11T01:44:01.722Z,13.4
2017-10-11T01:45:03.825Z,13.5
2017-10-11T01:46:05.976Z,13.5
2017-10-11T01:47:08.082Z,13.4
2017-10-11T01:48:10.194Z,13.4
2017-10-11T01:49:14.544Z,13.4
2017-10-11T01:50:16.664Z,13.4
2017-10-11T01:51:19.215Z,13.4
2017-10-11T01:52:21.593Z,13.4
2017-10-11T01:53:23.717Z,13.5
2017-10-11T01:54:25.805Z,13.4
2017-10-11T01:55:27.917Z,13.5
2017-10-11T01:56:30.029Z,13.4
2017-10-11T01:57:32.127Z,13.4
2017-10-11T01:58:34.224Z,13.4
2017-10-11T01:59:36.783Z,13.5
2017-10-11T02:00:38.865Z,13.4
2017-10-11T02:01:40.988Z,13.4
2017-10-11T02:02:43.107Z,13.5
2017-10-11T02:03:45.316Z,13.5
2017-10-11T02:04:47.495Z,13.5
2017-10-11T02:05:49.629Z,13.5
2017-10-11T02:06:51.764Z,13.5
2017-10-11T02:07:53.843Z,13.5
2017-10-11T02:08:55.964Z,13.5
2017-10-11T02:09:58.061Z,13.5
2017-10-11T02:11:00.191Z,13.4
2017-10-11T02:12:02.286Z,13.5
2017-10-11T02:13:04.392Z,13.5
2017-10-11T02:14:06.511Z,13.5
2017-10-11T02:15:08.599Z,13.5
2017-10-11T02:16:10.707Z,13.5
2017-10-11T02:17:12.789Z,13.6
2017-10-11T02:18:14.867Z,13.6
2017-10-11T02:19:16.968Z,13.6
2017-10-11T02:20:19.107Z,13.6
2017-10-11T02:21:21.243Z,13.5
2017-10-11T02:22:23.335Z,13.5
2017-10-11T02:23:25.441Z,13.5
2017-10-11T02:24:27.529Z,13.5
2017-10-11T02:25:29.657Z,13.5
2017-10-11T02:26:31.771Z,13.6
2017-10-11T02:27:33.811Z,13.5
2017-10-11T02:28:35.887Z,13.5
2017-10-11T02:29:37.934Z,13.5
2017-10-11T02:30:40.356Z,13.6
2017-10-11T02:31:42.674Z,13.6
2017-10-11T02:32:44.905Z,13.5
2017-10-11T02:33:47.045Z,13.6
2017-10-11T02:34:49.147Z,13.5
2017-10-11T02:35:51.552Z,13.5
2017-10-11T02:36:53.659Z,13.6
2017-10-11T02:37:55.762Z,13.5
2017-10-11T02:38:57.924Z,13.6
2017-10-11T02:39:59.996Z,13.5
2017-10-11T02:41:02.350Z,13.5
2017-10-11T02:42:04.441Z,13.6
2017-10-11T02:43:06.493Z,13.6
2017-10-11T02:44:08.754Z,13.5
2017-10-11T02:45:10.844Z,13.5
2017-10-11T02:46:14.117Z,13.6
2017-10-11T02:47:16.357Z,13.5
2017-10-11T02:48:18.432Z,13.5
2017-10-11T02:49:20.498Z,13.5
2017-10-11T02:50:22.583Z,13.5
2017-10-11T02:51:24.692Z,13.6
2017-10-11T02:52:26.822Z,13.6
2017-10-11T02:53:28.869Z,13.6
2017-10-11T02:54:30.988Z,13.6
2017-10-11T02:55:33.063Z,13.5
2017-10-11T02:56:35.253Z,13.5
2017-10-11T02:57:37.449Z,13.5
2017-10-11T02:58:39.554Z,13.6
2017-10-11T02:59:41.645Z,13.6
2017-10-11T03:00:43.750Z,13.6
2017-10-11T03:01:45.880Z,13.6
2017-10-11T03:02:47.942Z,13.6
2017-10-11T03:03:50.039Z,13.6
2017-10-11T03:04:52.110Z,13.6
2017-10-11T03:05:54.179Z,13.6
2017-10-11T03:06:56.305Z,13.6
2017-10-11T03:07:58.391Z,13.6
2017-10-11T03:09:00.502Z,13.6
2017-10-11T03:10:02.557Z,13.6
2017-10-11T03:11:04.930Z,13.6
2017-10-11T03:12:07.048Z,13.6
2017-10-11T03:13:09.150Z,13.5
2017-10-11T03:14:11.233Z,13.5
2017-10-11T03:15:13.439Z,13.6
2017-10-11T03:16:15.610Z,13.6
2017-10-11T03:17:17.712Z,13.5
2017-10-11T03:18:19.824Z,13.5
2017-10-11T03:19:21.886Z,13.5
2017-10-11T03:20:23.965Z,13.6
2017-10-11T03:21:26.085Z,13.5
2017-10-11T03:22:28.231Z,13.6
2017-10-11T03:23:30.351Z,13.6
2017-10-11T03:24:32.446Z,13.6
2017-10-11T03:25:34.523Z,13.6
2017-10-11T03:26:36.636Z,13.5
2017-10-11T03:27:38.760Z,13.6
2017-10-11T03:28:40.880Z,13.5
2017-10-11T03:29:42.993Z,13.5
2017-10-11T03:30:45.071Z,13.5
2017-10-11T03:31:47.171Z,13.5
2017-10-11T03:32:49.356Z,13.5
2017-10-11T03:33:51.515Z,13.4
2017-10-11T03:34:53.962Z,13.5
2017-10-11T03:35:56.099Z,13.5
2017-10-11T03:36:58.203Z,13.6
2017-10-11T03:38:00.266Z,13.5
2017-10-11T03:39:02.309Z,13.5
2017-10-11T03:40:04.541Z,13.5
2017-10-11T03:41:06.641Z,13.5
2017-10-11T03:42:08.764Z,13.4
2017-10-11T03:43:10.921Z,13.4
2017-10-11T03:44:13.919Z,13.5
2017-10-11T03:45:16.042Z,13.5
2017-10-11T03:46:18.142Z,13.5
2017-10-11T03:47:20.234Z,13.5
2017-10-11T03:48:22.418Z,13.4
2017-10-11T03:49:24.538Z,13.4
2017-10-11T03:50:26.646Z,13.5
2017-10-11T03:51:28.702Z,13.5
2017-10-11T03:52:30.830Z,13.5
2017-10-11T03:53:33.418Z,13.5
2017-10-11T03:54:35.506Z,13.4
2017-10-11T03:55:37.622Z,13.4
2017-10-11T03:56:39.665Z,13.4
2017-10-11T03:57:41.730Z,13.5
2017-10-11T03:58:44.120Z,13.4
2017-10-11T03:59:46.294Z,13.4
2017-10-11T04:00:48.422Z,13.4
2017-10-11T04:01:50.867Z,13.4
2017-10-11T04:02:52.909Z,13.4
2017-10-11T04:03:55.315Z,13.4
2017-10-11T04:04:57.458Z,13.4
2017-10-11T04:05:59.662Z,13.5
2017-10-11T04:07:01.740Z,13.4
2017-10-11T04:08:03.774Z,13.5
2017-10-11T04:09:05.847Z,13.4
2017-10-11T04:10:07.962Z,13.4
2017-10-11T04:11:10.142Z,13.4
2017-10-11T04:12:12.238Z,13.4
2017-10-11T04:13:14.329Z,13.4
2017-10-11T04:14:16.776Z,13.4
2017-10-11T04:15:18.820Z,13.5
2017-10-11T04:16:21.009Z,13.4
2017-10-11T04:17:23.087Z,13.4
2017-10-11T04:18:25.134Z,13.4
2017-10-11T04:19:27.242Z,13.4
2017-10-11T04:20:29.340Z,13.4
2017-10-11T04:21:31.411Z,13.4
2017-10-11T04:22:33.559Z,13.5
2017-10-11T04:23:35.593Z,13.4
2017-10-11T04:24:37.662Z,13.4
2017-10-11T04:25:39.757Z,13.4
2017-10-11T04:26:41.893Z,13.4
2017-10-11T04:27:44.049Z,13.4
2017-10-11T04:28:46.099Z,13.4
2017-10-11T04:29:48.165Z,13.5
2017-10-11T04:30:50.242Z,13.4
2017-10-11T04:31:52.274Z,13.4
2017-10-11T04:32:54.368Z,13.5
2017-10-11T04:33:56.465Z,13.4
2017-10-11T04:34:58.538Z,13.4
2017-10-11T04:36:00.661Z,13.5
2017-10-11T04:37:02.709Z,13.5
2017-10-11T04:38:04.775Z,13.4
2017-10-11T04:39:11.769Z,13.4
2017-10-11T04:40:14.360Z,13.4
2017-10-11T04:41:16.469Z,13.4
2017-10-11T04:42:18.521Z,13.4
2017-10-11T04:43:20.580Z,13.3
2017-10-11T04:44:22.608Z,13.4
2017-10-11T04:45:24.714Z,13.4
2017-10-11T04:46:26.796Z,13.4
2017-10-11T04:47:28.863Z,13.4
2017-10-11T04:48:30.907Z,13.4
2017-10-11T04:49:32.948Z,13.4
2017-10-11T04:50:35.045Z,13.4
2017-10-11T04:51:37.282Z,13.4
2017-10-11T04:52:39.321Z,13.4
2017-10-11T04:53:41.401Z,13.4
2017-10-11T04:54:43.491Z,13.4
2017-10-11T04:55:45.640Z,13.4
2017-10-11T04:56:47.728Z,13.4
2017-10-11T04:57:49.953Z,13.4
2017-10-11T04:58:52.002Z,13.3
2017-10-11T04:59:55.185Z,13.3
2017-10-11T05:00:57.331Z,13.3
2017-10-11T05:01:59.433Z,13.4
2017-10-11T05:03:01.513Z,13.3
2017-10-11T05:04:03.681Z,13.3
2017-10-11T05:05:05.748Z,13.3
2017-10-11T05:06:07.833Z,13.3
2017-10-11T05:07:09.878Z,13.4
2017-10-11T05:08:13.985Z,13.4
2017-10-11T05:09:16.067Z,13.4
2017-10-11T05:10:18.131Z,13.4
2017-10-11T05:11:20.238Z,13.3
2017-10-11T05:12:22.719Z,13.3
2017-10-11T05:13:24.767Z,13.3
2017-10-11T05:14:26.816Z,13.3
2017-10-11T05:15:28.885Z,13.2
2017-10-11T05:16:31.015Z,13.2
2017-10-11T05:17:33.081Z,13.2
2017-10-11T05:18:35.120Z,13.3
2017-10-11T05:19:37.190Z,13.2
2017-10-11T05:20:39.298Z,13.2
2017-10-11T05:21:41.695Z,13.2
2017-10-11T05:22:43.810Z,13.2
2017-10-11T05:23:45.921Z,13.1
2017-10-11T05:24:48.837Z,13.1
2017-10-11T05:25:50.932Z,13
2017-10-11T05:26:53.277Z,13.1
2017-10-11T05:27:55.342Z,13.1
2017-10-11T05:28:57.503Z,13.1
2017-10-11T05:29:59.686Z,13.1
2017-10-11T05:31:01.775Z,13.1
2017-10-11T05:32:04.121Z,13
2017-10-11T05:33:06.190Z,13.1
2017-10-11T05:34:08.242Z,13.1
2017-10-11T05:35:10.559Z,13
2017-10-11T05:36:14.164Z,13
2017-10-11T05:37:16.616Z,13
2017-10-11T05:38:18.683Z,13
2017-10-11T05:39:20.774Z,13.1
2017-10-11T05:40:22.852Z,13.1
2017-10-11T05:41:24.906Z,13.2
2017-10-11T05:42:27.406Z,13.2
2017-10-11T05:43:29.743Z,13.1
2017-10-11T05:44:31.876Z,13
2017-10-11T05:45:33.932Z,13.1
2017-10-11T05:46:35.991Z,13.1
2017-10-11T05:47:38.362Z,13.1
2017-10-11T05:48:40.427Z,13.1
2017-10-11T05:49:42.514Z,13.1
2017-10-11T05:50:44.622Z,13.1
2017-10-11T05:51:46.715Z,13.2
2017-10-11T05:52:49.039Z,13.1
2017-10-11T05:53:51.130Z,13.1
2017-10-11T05:54:53.214Z,13.1
2017-10-11T05:55:55.305Z,13.2
2017-10-11T05:56:57.355Z,13.1
2017-10-11T05:57:59.764Z,13.2
2017-10-11T05:59:01.829Z,13.2
2017-10-11T06:00:03.908Z,13.3
2017-10-11T06:01:05.969Z,13.2
2017-10-11T06:02:08.034Z,13.2
2017-10-11T06:03:10.184Z,13.2
2017-10-11T06:04:14.202Z,13.2
2017-10-11T06:05:16.321Z,13.2
2017-10-11T06:06:18.399Z,13.2
2017-10-11T06:07:20.456Z,13.3
2017-10-11T06:08:22.556Z,13.3
2017-10-11T06:09:24.618Z,13.2
2017-10-11T06:10:26.694Z,13.2
2017-10-11T06:11:28.739Z,13.3
2017-10-11T06:12:30.810Z,13.3
2017-10-11T06:13:33.268Z,13.2
2017-10-11T06:14:35.322Z,13.3
2017-10-11T06:15:37.396Z,13.3
2017-10-11T06:16:39.440Z,13.3
2017-10-11T06:17:41.498Z,13.2
2017-10-11T06:18:43.604Z,13.2
2017-10-11T06:19:45.677Z,13.3
2017-10-11T06:20:47.717Z,13.3
2017-10-11T06:21:49.822Z,13.3
2017-10-11T06:22:51.871Z,13.3
2017-10-11T06:23:53.959Z,13.3
2017-10-11T06:24:56.082Z,13.4
2017-10-11T06:25:58.162Z,13.3
2017-10-11T06:27:00.199Z,13.3
2017-10-11T06:28:02.459Z,13.3
2017-10-11T06:29:04.886Z,13.3
2017-10-11T06:30:06.934Z,13.3
2017-10-11T06:31:09.012Z,13.3
2017-10-11T06:32:11.139Z,13.3
2017-10-11T06:33:15.680Z,13.4
2017-10-11T06:34:17.803Z,13.3
2017-10-11T06:35:19.925Z,13.4
2017-10-11T06:36:22.009Z,13.4
2017-10-11T06:37:24.186Z,13.4
2017-10-11T06:38:26.275Z,13.4
2017-10-11T06:39:28.333Z,13.5
2017-10-11T06:40:30.397Z,13.5
2017-10-11T06:41:32.485Z,13.6
2017-10-11T06:42:34.554Z,13.7
2017-10-11T06:43:36.616Z,13.8
2017-10-11T06:44:38.674Z,13.8
2017-10-11T06:45:40.753Z,13.8
2017-10-11T06:46:42.843Z,13.7
2017-10-11T06:47:44.914Z,13.7
2017-10-11T06:48:46.974Z,13.7
2017-10-11T06:49:49.102Z,13.6
2017-10-11T06:50:51.198Z,13.7
2017-10-11T06:51:53.411Z,13.6
2017-10-11T06:52:55.452Z,13.6
2017-10-11T06:53:57.564Z,13.6
2017-10-11T06:54:59.737Z,13.6
2017-10-11T06:56:01.840Z,13.6
2017-10-11T06:57:03.869Z,13.5
2017-10-11T06:58:05.933Z,13.7
2017-10-11T06:59:08.035Z,13.6
2017-10-11T07:00:10.908Z,13.6
2017-10-11T07:01:13.014Z,13.6
2017-10-11T07:02:15.112Z,13.7
2017-10-11T07:03:17.215Z,13.7
2017-10-11T07:04:19.298Z,13.7
2017-10-11T07:05:21.381Z,13.6
2017-10-11T07:06:23.459Z,13.7
2017-10-11T07:07:25.527Z,13.7
2017-10-11T07:08:27.613Z,13.6
2017-10-11T07:09:29.676Z,13.6
2017-10-11T07:10:31.746Z,13.6
2017-10-11T07:11:33.823Z,13.6
2017-10-11T07:12:35.951Z,13.6
2017-10-11T07:13:38.037Z,13.6
2017-10-11T07:14:40.131Z,13.5
2017-10-11T07:15:42.260Z,13.6
2017-10-11T07:16:44.417Z,13.6
2017-10-11T07:17:46.535Z,13.6
2017-10-11T07:18:48.658Z,13.6
2017-10-11T07:19:50.744Z,13.6
2017-10-11T07:20:52.821Z,13.6
2017-10-11T07:21:54.915Z,13.7
2017-10-11T07:22:57.017Z,13.6
2017-10-11T07:23:59.158Z,13.7
2017-10-11T07:25:01.226Z,13.7
2017-10-11T07:26:03.308Z,13.8
2017-10-11T07:27:05.458Z,13.6
2017-10-11T07:28:07.532Z,13.7
2017-10-11T07:29:09.649Z,13.7
2017-10-11T07:30:11.735Z,13.6
2017-10-11T07:31:15.085Z,13.6
2017-10-11T07:32:17.197Z,13.8
2017-10-11T07:33:19.362Z,13.9
2017-10-11T07:34:21.588Z,13.9
2017-10-11T07:35:23.681Z,14
2017-10-11T07:36:25.816Z,14
2017-10-11T07:37:27.927Z,14
2017-10-11T07:38:30.040Z,13.9
2017-10-11T07:39:32.136Z,13.9
2017-10-11T07:40:34.477Z,14
2017-10-11T07:41:36.564Z,14.1
2017-10-11T07:42:38.694Z,14
2017-10-11T07:43:40.821Z,14
2017-10-11T07:44:42.997Z,14.2
2017-10-11T07:45:45.136Z,14.1
2017-10-11T07:46:47.205Z,14.1
2017-10-11T07:47:49.345Z,14.1
2017-10-11T07:48:51.413Z,14.1
2017-10-11T07:49:53.516Z,14.1
2017-10-11T07:50:55.588Z,14.3
2017-10-11T07:51:57.728Z,14.3
2017-10-11T07:52:59.886Z,14.3
2017-10-11T07:54:01.993Z,14.4
2017-10-11T07:55:04.057Z,14.4
2017-10-11T07:56:06.167Z,14.5
2017-10-11T07:57:08.627Z,14.5
2017-10-11T07:58:10.722Z,14.5
2017-10-11T07:59:12.850Z,14.6
2017-10-11T08:00:14.938Z,14.6
2017-10-11T08:01:17.031Z,14.7
2017-10-11T08:02:19.546Z,14.7
2017-10-11T08:03:21.621Z,15
2017-10-11T08:04:23.697Z,15
2017-10-11T08:05:25.838Z,15.4
2017-10-11T08:06:27.973Z,15.7
2017-10-11T08:07:30.072Z,15.9
2017-10-11T08:08:32.204Z,15.9
2017-10-11T08:09:34.329Z,15.8
2017-10-11T08:10:36.387Z,15.9
2017-10-11T08:11:38.502Z,16.4
2017-10-11T08:12:40.580Z,16.5
2017-10-11T08:13:42.703Z,16.5
2017-10-11T08:14:44.829Z,16.7
2017-10-11T08:15:46.981Z,16.9
2017-10-11T08:16:49.121Z,16.8
2017-10-11T08:17:51.253Z,17.3
2017-10-11T08:18:53.894Z,17.5
2017-10-11T08:19:55.978Z,17.7
2017-10-11T08:20:58.074Z,17.8
2017-10-11T08:22:00.152Z,18.3
2017-10-11T08:23:02.608Z,18.2
2017-10-11T08:24:04.666Z,18.8
2017-10-11T08:25:06.822Z,19.1
2017-10-11T08:26:09.498Z,18.5
2017-10-11T08:27:11.622Z,18.6
2017-10-11T08:28:13.739Z,18.5
2017-10-11T08:29:16.961Z,18.6
2017-10-11T08:30:19.087Z,19.1
2017-10-11T08:31:21.249Z,19.2
2017-10-11T08:32:23.329Z,19.4
2017-10-11T08:33:25.454Z,19.4
2017-10-11T08:34:27.550Z,18.4
2017-10-11T08:35:29.690Z,18.6
2017-10-11T08:36:31.907Z,18.6
2017-10-11T08:37:33.978Z,17.4
2017-10-11T08:39:44.826Z,16.3
2017-10-11T08:40:47.334Z,16.3
2017-10-11T08:41:49.503Z,16.1
2017-10-11T08:42:51.587Z,16
2017-10-11T08:43:53.751Z,15.9
2017-10-11T08:44:55.860Z,15.7
2017-10-11T08:45:58.002Z,15.7
2017-10-11T08:47:00.115Z,15.7
2017-10-11T08:48:02.260Z,15.7
2017-10-11T08:49:04.643Z,15.6
2017-10-11T08:50:06.715Z,15.6
2017-10-11T08:51:09.564Z,15.7
2017-10-11T08:52:11.672Z,15.7
2017-10-11T08:53:14.716Z,15.6
2017-10-11T08:54:17.136Z,15.7
2017-10-11T08:55:19.293Z,15.6
2017-10-11T08:56:21.364Z,15.8
2017-10-11T08:57:23.448Z,15.9
2017-10-11T08:58:25.565Z,15.9
2017-10-11T08:59:28.237Z,15.7
2017-10-11T09:00:30.363Z,15.4
2017-10-11T09:01:32.505Z,15.5
2017-10-11T09:02:34.668Z,15.6
2017-10-11T09:03:36.822Z,15.5
2017-10-11T09:04:39.219Z,15.4
2017-10-11T09:05:41.902Z,15.5
2017-10-11T09:06:43.962Z,15.4
2017-10-11T09:07:46.075Z,15.5
2017-10-11T09:08:48.173Z,15.4
2017-10-11T09:09:50.543Z,15.4
2017-10-11T09:10:52.648Z,15.4
2017-10-11T09:11:54.762Z,15.6
2017-10-11T09:12:56.807Z,15.5
2017-10-11T09:13:58.886Z,15.3
2017-10-11T09:15:00.964Z,15.4
2017-10-11T09:16:03.024Z,15.4
2017-10-11T09:17:05.108Z,15.5
2017-10-11T09:18:07.299Z,15.5
2017-10-11T09:19:09.401Z,15.4
2017-10-11T09:20:11.825Z,15.6
2017-10-11T09:21:13.947Z,15.5
2017-10-11T09:22:16.057Z,15.5
2017-10-11T09:23:18.177Z,15.4
2017-10-11T09:24:20.362Z,15.4
2017-10-11T09:25:22.768Z,15.3
2017-10-11T09:26:24.987Z,15.3
2017-10-11T09:27:27.109Z,15.5
2017-10-11T09:28:29.190Z,15.6
2017-10-11T09:29:31.315Z,15.5
2017-10-11T09:30:33.802Z,15.4
2017-10-11T09:31:35.913Z,15.4
2017-10-11T09:32:38.020Z,15.3
2017-10-11T09:33:40.149Z,15.4
2017-10-11T09:34:42.244Z,15.3
2017-10-11T09:35:44.658Z,15.3
2017-10-11T09:36:46.762Z,15.4
2017-10-11T09:37:48.928Z,15.4
2017-10-11T09:38:50.998Z,15.4
2017-10-11T09:39:53.579Z,15.2
2017-10-11T09:40:56.040Z,15.2
2017-10-11T09:41:58.155Z,15.2
2017-10-11T09:43:00.231Z,15
2017-10-11T09:44:02.372Z,15.1
2017-10-11T09:45:04.456Z,15.2
2017-10-11T09:46:06.841Z,15.2
2017-10-11T09:47:08.921Z,15.1
2017-10-11T09:48:10.986Z,15.2
2017-10-11T09:49:14.511Z,15.3
2017-10-11T09:50:16.589Z,15.2
2017-10-11T09:51:18.979Z,15.1
2017-10-11T09:52:21.045Z,15
2017-10-11T09:53:23.098Z,15.1
2017-10-11T09:54:25.268Z,14.9
2017-10-11T09:55:28.849Z,15
2017-10-11T09:56:31.265Z,15.1
2017-10-11T09:57:33.351Z,15.1
2017-10-11T09:58:35.473Z,15.1
2017-10-11T09:59:37.545Z,15.2
2017-10-11T10:00:39.631Z,15.2
2017-10-11T10:01:42.011Z,15.3
2017-10-11T10:02:44.103Z,15.2
2017-10-11T10:03:46.249Z,15.3
2017-10-11T10:04:48.307Z,15.4
2017-10-11T10:05:50.405Z,15.5
2017-10-11T10:06:52.556Z,15.5
2017-10-11T10:07:54.679Z,15.4
2017-10-11T10:08:56.756Z,15.2
2017-10-11T10:09:58.892Z,15.3
2017-10-11T10:11:00.940Z,15.3
2017-10-11T10:12:03.355Z,15.2
2017-10-11T10:13:05.451Z,15.3
2017-10-11T10:14:07.546Z,15.2
2017-10-11T10:15:09.640Z,15.3
2017-10-11T10:16:11.799Z,15.2
2017-10-11T10:17:15.486Z,15.3
2017-10-11T10:18:17.600Z,15.3
2017-10-11T10:19:19.723Z,15.3
2017-10-11T10:20:24.923Z,15.4
2017-10-11T10:21:27.109Z,15.3
2017-10-11T10:22:29.525Z,15.3
2017-10-11T10:23:31.737Z,15.4
2017-10-11T10:24:33.844Z,15.4
2017-10-11T10:25:35.959Z,15.3
2017-10-11T10:26:38.082Z,15.3
2017-10-11T10:27:40.597Z,15.3
2017-10-11T10:28:42.717Z,15.4
2017-10-11T10:29:44.833Z,15.4
2017-10-11T10:30:46.964Z,15.4
2017-10-11T10:31:49.115Z,15.5
2017-10-11T10:32:51.231Z,15.4
2017-10-11T10:33:53.422Z,15.4
2017-10-11T10:34:55.484Z,15.3
2017-10-11T10:35:57.591Z,15.4
2017-10-11T10:36:59.692Z,15.4
2017-10-11T10:38:01.779Z,15.4
2017-10-11T10:39:03.867Z,15.4
2017-10-11T10:40:05.950Z,15.4
2017-10-11T10:41:08.057Z,15.5
2017-10-11T10:42:10.602Z,15.5
2017-10-11T10:43:12.693Z,15.4
2017-10-11T10:44:16.779Z,15.4
2017-10-11T10:45:18.915Z,15.5
2017-10-11T10:46:21.041Z,15.4
2017-10-11T10:47:23.151Z,15.5
2017-10-11T10:48:25.465Z,15.5
2017-10-11T10:49:27.546Z,15.6
2017-10-11T10:50:29.669Z,15.6
2017-10-11T10:51:31.748Z,15.6
2017-10-11T10:52:33.849Z,15.5
2017-10-11T10:53:36.268Z,15.5
2017-10-11T10:54:38.355Z,15.6
2017-10-11T10:55:40.450Z,15.5
2017-10-11T10:56:42.764Z,15.6
2017-10-11T10:57:44.842Z,15.7
2017-10-11T10:58:46.976Z,15.6
2017-10-11T10:59:49.076Z,15.6
2017-10-11T11:00:51.205Z,15.6
2017-10-11T11:01:53.309Z,15.7
2017-10-11T11:02:55.373Z,15.8
2017-10-11T11:03:57.762Z,15.7
2017-10-11T11:04:59.897Z,15.6
2017-10-11T11:06:01.967Z,15.7
2017-10-11T11:07:04.043Z,15.6
2017-10-11T11:08:06.136Z,15.7
2017-10-11T11:09:08.575Z,15.7
2017-10-11T11:10:10.691Z,15.7
2017-10-11T11:11:16.668Z,15.8
2017-10-11T11:12:18.763Z,15.7
2017-10-11T11:13:20.954Z,15.8
2017-10-11T11:14:23.342Z,15.9
2017-10-11T11:15:25.452Z,15.8
2017-10-11T11:16:27.591Z,15.7
2017-10-11T11:17:29.658Z,15.8
2017-10-11T11:18:31.762Z,15.8
2017-10-11T11:19:34.182Z,15.8
2017-10-11T11:20:36.339Z,15.8
2017-10-11T11:21:38.420Z,15.8
2017-10-11T11:22:40.526Z,15.8
2017-10-11T11:23:42.639Z,15.9
2017-10-11T11:24:44.769Z,15.8
2017-10-11T11:25:47.028Z,15.8
2017-10-11T11:26:49.120Z,15.6
2017-10-11T11:27:51.236Z,15.7
2017-10-11T11:28:53.308Z,15.7
2017-10-11T11:29:55.426Z,15.8
2017-10-11T11:30:57.475Z,15.8
2017-10-11T11:31:59.589Z,15.8
2017-10-11T11:33:01.746Z,15.7
2017-10-11T11:34:03.890Z,15.6
2017-10-11T11:35:06.067Z,15.6
2017-10-11T11:36:08.140Z,15.7
2017-10-11T11:37:10.560Z,15.7
2017-10-11T11:38:14.276Z,15.7
2017-10-11T11:39:16.415Z,15.6
2017-10-11T11:40:18.517Z,15.6
2017-10-11T11:41:20.576Z,15.6
2017-10-11T11:42:22.658Z,15.6
2017-10-11T11:43:24.747Z,15.7
2017-10-11T11:44:26.820Z,15.7
2017-10-11T11:45:28.932Z,15.6
2017-10-11T11:46:31.066Z,15.4
2017-10-11T11:47:33.282Z,15.5
2017-10-11T11:48:35.392Z,15.5
2017-10-11T11:49:37.467Z,15.5
2017-10-11T11:50:39.599Z,15.5
2017-10-11T11:51:41.712Z,15.4
2017-10-11T11:52:43.833Z,15.4
2017-10-11T11:53:45.899Z,15.4
2017-10-11T11:54:47.962Z,15.5
2017-10-11T11:55:50.061Z,15.5
2017-10-11T11:56:52.185Z,15.4
2017-10-11T11:57:54.295Z,15.4
2017-10-11T11:58:56.406Z,15.4
2017-10-11T11:59:58.524Z,15.4
2017-10-11T12:01:00.694Z,15.4
2017-10-11T12:02:02.787Z,15.2
2017-10-11T12:03:04.928Z,15.3
2017-10-11T12:04:07.046Z,15.3
2017-10-11T12:05:09.129Z,15.3
2017-10-11T12:06:11.270Z,15.4
2017-10-11T12:07:13.348Z,15.4
2017-10-11T12:08:15.450Z,15.3
2017-10-11T12:09:17.507Z,15.3
2017-10-11T12:10:19.661Z,15.3
2017-10-11T12:11:22.540Z,15.3
2017-10-11T12:12:24.660Z,15.2
2017-10-11T12:13:26.779Z,15.1
2017-10-11T12:14:28.914Z,15.2
2017-10-11T12:15:31.261Z,15.2
2017-10-11T12:16:33.374Z,15.3
2017-10-11T12:17:35.521Z,15.3
2017-10-11T12:18:37.744Z,15.3
2017-10-11T12:19:40.482Z,15.3
2017-10-11T12:20:42.574Z,15.1
2017-10-11T12:21:44.669Z,15.1
2017-10-11T12:22:46.746Z,15.2
2017-10-11T12:23:48.848Z,15.3
2017-10-11T12:24:50.990Z,15.2
2017-10-11T12:25:53.127Z,15.2
2017-10-11T12:26:55.771Z,15.2
2017-10-11T12:27:57.893Z,15.3
2017-10-11T12:28:59.952Z,15.2
2017-10-11T12:30:02.065Z,15.3
2017-10-11T12:31:04.186Z,15.3
2017-10-11T12:32:06.325Z,15.3
2017-10-11T12:33:08.415Z,15.3
2017-10-11T12:34:10.627Z,15.2
2017-10-11T12:35:14.907Z,15.2
2017-10-11T12:36:17.031Z,15.3
2017-10-11T12:37:19.282Z,15.3
2017-10-11T12:38:21.387Z,15.2
2017-10-11T12:39:23.471Z,15.2
2017-10-11T12:40:25.561Z,15.3
2017-10-11T12:41:27.749Z,15.3
2017-10-11T12:42:30.145Z,15.3
2017-10-11T12:43:32.257Z,15.3
2017-10-11T12:44:34.293Z,15.2
2017-10-11T12:45:36.441Z,15.2
2017-10-11T12:46:38.539Z,15.2
2017-10-11T12:47:40.682Z,15.2
2017-10-11T12:48:42.779Z,15.1
2017-10-11T12:49:45.091Z,15.1
2017-10-11T12:50:47.185Z,15.2
2017-10-11T12:51:49.291Z,15.2
2017-10-11T12:52:51.408Z,15.2
2017-10-11T12:53:54.220Z,15.1
2017-10-11T12:54:56.309Z,15.2
2017-10-11T12:55:58.429Z,15.2
2017-10-11T12:57:00.539Z,15.2
2017-10-11T12:58:02.731Z,15.2
2017-10-11T12:59:04.811Z,15.2
2017-10-11T13:00:06.927Z,15.2
2017-10-11T13:01:09.006Z,15.2
2017-10-11T13:02:11.121Z,15.1
2017-10-11T13:03:14.902Z,15.2
2017-10-11T13:04:17.045Z,15.2
2017-10-11T13:05:19.153Z,15.2
2017-10-11T13:06:21.217Z,15.2
2017-10-11T13:07:23.322Z,15.1
2017-10-11T13:08:25.475Z,15.1
2017-10-11T13:09:27.537Z,15.1
2017-10-11T13:10:29.635Z,15.1
2017-10-11T13:11:31.835Z,15.2
2017-10-11T13:12:33.983Z,15.1
2017-10-11T13:13:36.070Z,15.1
2017-10-11T13:14:38.185Z,15.1
2017-10-11T13:15:40.296Z,15.1
2017-10-11T13:16:42.340Z,15.1
2017-10-11T13:17:44.400Z,15.1
2017-10-11T13:18:46.492Z,15.2
2017-10-11T13:19:48.552Z,15.2
2017-10-11T13:20:50.640Z,15.2
2017-10-11T13:21:52.821Z,15.1
2017-10-11T13:22:54.937Z,15.1
2017-10-11T13:23:57.232Z,15.2
2017-10-11T13:24:59.366Z,15.2
2017-10-11T13:26:01.477Z,15.1
2017-10-11T13:27:03.571Z,15.1
2017-10-11T13:28:05.639Z,15.1
2017-10-11T13:29:07.756Z,15.1
2017-10-11T13:30:09.990Z,15.1
2017-10-11T13:31:12.103Z,15.1
2017-10-11T13:32:14.215Z,15.2
2017-10-11T13:33:16.322Z,15.1
2017-10-11T13:34:18.701Z,15.1
2017-10-11T13:35:20.764Z,15.1
2017-10-11T13:36:23.368Z,15.1
2017-10-11T13:37:25.423Z,15.2
2017-10-11T13:38:28.025Z,15.1
2017-10-11T13:39:30.112Z,15.1
2017-10-11T13:40:32.222Z,15.1
2017-10-11T13:41:34.239Z,15.1
2017-10-11T13:42:36.314Z,15
2017-10-11T13:43:38.411Z,15.1
2017-10-11T13:44:40.535Z,15.1
2017-10-11T13:45:42.658Z,15.1
2017-10-11T13:46:44.782Z,15
2017-10-11T13:47:46.895Z,15
2017-10-11T13:48:49.074Z,15
2017-10-11T13:49:51.181Z,14.9
2017-10-11T13:50:53.247Z,14.9